National Weather Service Raw Text Product

Displaying AFOS PIL: TAFFOD Received: 2017-09-14 09:49 UTC


660 
FTUS43 KDMX 140949 AAA
TAFFOD
TAF AMD
KFOD 140949Z 1410/1506 18003KT 5SM BR SKC
     FM141100 19007KT P6SM BKN110
     FM141900 19012G23KT P6SM BKN250
     FM142300 17011KT P6SM SCT200
     FM150200 17009KT P6SM BKN100 BKN200=